sensor_id;sensor_type;location;lat;lon;timestamp;temperature;humidity
14775;DHT22;7479;47.042;15.160;2023-11-19T08:40:08;3.40;99.90
14775;DHT22;7479;47.042;15.160;2023-11-19T08:57:11;4.10;99.90
14775;DHT22;7479;47.042;15.160;2023-11-19T09:02:05;4.40;99.90
14775;DHT22;7479;47.042;15.160;2023-11-19T09:06:59;4.50;99.90
14775;DHT22;7479;47.042;15.160;2023-11-19T09:11:53;4.70;99.90
14775;DHT22;7479;47.042;15.160;2023-11-19T09:16:48;5.00;99.90
14775;DHT22;7479;47.042;15.160;2023-11-19T09:21:42;5.00;99.90
14775;DHT22;7479;47.042;15.160;2023-11-19T09:26:36;5.20;99.90
14775;DHT22;7479;47.042;15.160;2023-11-19T09:31:32;5.10;99.90
14775;DHT22;7479;47.042;15.160;2023-11-19T09:36:28;5.20;99.90
14775;DHT22;7479;47.042;15.160;2023-11-19T09:49:27;6.10;99.90
14775;DHT22;7479;47.042;15.160;2023-11-19T09:54:24;6.30;99.90
14775;DHT22;7479;47.042;15.160;2023-11-19T09:59:18;6.70;99.90
14775;DHT22;7479;47.042;15.160;2023-11-19T10:04:15;6.90;99.90
14775;DHT22;7479;47.042;15.160;2023-11-19T10:09:12;7.10;99.90
14775;DHT22;7479;47.042;15.160;2023-11-19T10:14:07;7.50;99.90
14775;DHT22;7479;47.042;15.160;2023-11-19T10:19:01;8.00;99.90
14775;DHT22;7479;47.042;15.160;2023-11-19T10:23:56;8.20;99.90
14775;DHT22;7479;47.042;15.160;2023-11-19T10:28:55;8.40;99.90
14775;DHT22;7479;47.042;15.160;2023-11-19T10:33:49;8.90;99.90
14775;DHT22;7479;47.042;15.160;2023-11-19T10:38:53;9.20;99.90
14775;DHT22;7479;47.042;15.160;2023-11-19T10:43:47;9.70;99.90
14775;DHT22;7479;47.042;15.160;2023-11-19T10:48:42;9.90;99.90
14775;DHT22;7479;47.042;15.160;2023-11-19T10:53:37;10.10;99.90
14775;DHT22;7479;47.042;15.160;2023-11-19T10:58:32;10.30;99.90
14775;DHT22;7479;47.042;15.160;2023-11-19T11:03:31;10.60;99.50
14775;DHT22;7479;47.042;15.160;2023-11-19T11:08:30;10.70;99.70
14775;DHT22;7479;47.042;15.160;2023-11-19T11:13:25;11.10;99.60
14775;DHT22;7479;47.042;15.160;2023-11-19T11:18:20;11.60;98.00
14775;DHT22;7479;47.042;15.160;2023-11-19T11:28:59;12.70;96.30
14775;DHT22;7479;47.042;15.160;2023-11-19T11:34:23;13.20;94.70
14775;DHT22;7479;47.042;15.160;2023-11-19T11:39:22;13.30;94.80
14775;DHT22;7479;47.042;15.160;2023-11-19T11:49:47;14.20;92.40
14775;DHT22;7479;47.042;15.160;2023-11-19T11:54:41;14.20;91.50
14775;DHT22;7479;47.042;15.160;2023-11-19T11:59:54;14.20;91.60
14775;DHT22;7479;47.042;15.160;2023-11-19T12:04:48;14.00;92.00
14775;DHT22;7479;47.042;15.160;2023-11-19T12:09:45;14.40;91.80
14775;DHT22;7479;47.042;15.160;2023-11-19T12:15:07;14.80;91.50
14775;DHT22;7479;47.042;15.160;2023-11-19T12:20:05;15.10;91.10
14775;DHT22;7479;47.042;15.160;2023-11-19T12:25:02;15.70;90.00
14775;DHT22;7479;47.042;15.160;2023-11-19T12:29:56;15.60;88.10
14775;DHT22;7479;47.042;15.160;2023-11-19T12:34:51;15.00;89.60
14775;DHT22;7479;47.042;15.160;2023-11-19T12:39:45;14.80;90.50
14775;DHT22;7479;47.042;15.160;2023-11-19T12:44:39;15.10;89.60
14775;DHT22;7479;47.042;15.160;2023-11-19T12:49:33;15.50;86.80
14775;DHT22;7479;47.042;15.160;2023-11-19T12:54:35;16.00;85.50
14775;DHT22;7479;47.042;15.160;2023-11-19T12:59:29;15.70;83.30
14775;DHT22;7479;47.042;15.160;2023-11-19T13:04:28;15.80;83.40
14775;DHT22;7479;47.042;15.160;2023-11-19T13:09:23;16.40;81.40
14775;DHT22;7479;47.042;15.160;2023-11-19T13:14:20;16.30;81.30
14775;DHT22;7479;47.042;15.160;2023-11-19T13:19:14;16.70;79.50
14775;DHT22;7479;47.042;15.160;2023-11-19T13:24:08;17.30;78.30
14775;DHT22;7479;47.042;15.160;2023-11-19T13:29:04;17.90;77.80
14775;DHT22;7479;47.042;15.160;2023-11-19T13:34:00;18.50;75.90
14775;DHT22;7479;47.042;15.160;2023-11-19T13:38:54;18.90;74.00
14775;DHT22;7479;47.042;15.160;2023-11-19T13:43:52;18.80;73.00
14775;DHT22;7479;47.042;15.160;2023-11-19T13:48:45;19.10;72.80
14775;DHT22;7479;47.042;15.160;2023-11-19T13:53:43;19.00;72.10
14775;DHT22;7479;47.042;15.160;2023-11-19T13:58:40;18.60;72.30
14775;DHT22;7479;47.042;15.160;2023-11-19T14:03:33;16.50;75.50
14775;DHT22;7479;47.042;15.160;2023-11-19T14:08:27;13.70;84.60
14775;DHT22;7479;47.042;15.160;2023-11-19T14:13:23;12.30;90.60
14775;DHT22;7479;47.042;15.160;2023-11-19T14:18:16;11.70;92.40
14775;DHT22;7479;47.042;15.160;2023-11-19T14:23:10;11.40;93.80
14775;DHT22;7479;47.042;15.160;2023-11-19T14:28:05;11.20;94.80
14775;DHT22;7479;47.042;15.160;2023-11-19T14:33:00;11.00;96.10
14775;DHT22;7479;47.042;15.160;2023-11-19T14:37:55;10.70;96.60
14775;DHT22;7479;47.042;15.160;2023-11-19T14:42:49;10.50;97.60
14775;DHT22;7479;47.042;15.160;2023-11-19T14:47:43;10.20;98.20
14775;DHT22;7479;47.042;15.160;2023-11-19T14:52:39;10.00;99.10
14775;DHT22;7479;47.042;15.160;2023-11-19T14:57:33;9.70;99.90
14775;DHT22;7479;47.042;15.160;2023-11-19T15:02:28;9.60;99.90
14775;DHT22;7479;47.042;15.160;2023-11-19T15:07:22;9.40;99.90
14775;DHT22;7479;47.042;15.160;2023-11-19T15:12:17;9.20;99.90
14775;DHT22;7479;47.042;15.160;2023-11-19T15:17:11;9.00;99.90
14775;DHT22;7479;47.042;15.160;2023-11-19T15:22:05;8.80;99.90
14775;DHT22;7479;47.042;15.160;2023-11-19T15:26:59;8.60;99.90
14775;DHT22;7479;47.042;15.160;2023-11-19T15:31:57;8.30;99.90
14775;DHT22;7479;47.042;15.160;2023-11-19T15:36:51;8.10;99.90
14775;DHT22;7479;47.042;15.160;2023-11-19T15:42:11;8.00;99.90
14775;DHT22;7479;47.042;15.160;2023-11-19T15:47:07;7.80;99.90
14775;DHT22;7479;47.042;15.160;2023-11-19T15:52:05;7.50;99.90
14775;DHT22;7479;47.042;15.160;2023-11-19T15:56:59;7.20;99.90
14775;DHT22;7479;47.042;15.160;2023-11-19T16:01:56;7.10;99.90
14775;DHT22;7479;47.042;15.160;2023-11-19T16:06:52;6.80;99.90
